sensor_id;sensor_type;location;lat;lon;timestamp;P1;durP1;ratioP1;P2;durP2;ratioP2
40515;SDS011;26216;53.724;9.898;2023-01-30T00:00:57;32.65;;;21.48;;
40515;SDS011;26216;53.724;9.898;2023-01-30T00:03:25;25.98;;;18.15;;
40515;SDS011;26216;53.724;9.898;2023-01-30T00:05:51;29.13;;;18.75;;
40515;SDS011;26216;53.724;9.898;2023-01-30T00:08:17;29.83;;;19.98;;
40515;SDS011;26216;53.724;9.898;2023-01-30T00:10:45;25.83;;;17.52;;
40515;SDS011;26216;53.724;9.898;2023-01-30T00:13:11;28.80;;;19.42;;
40515;SDS011;26216;53.724;9.898;2023-01-30T00:15:41;30.73;;;21.63;;
40515;SDS011;26216;53.724;9.898;2023-01-30T00:18:07;32.38;;;21.35;;
40515;SDS011;26216;53.724;9.898;2023-01-30T00:20:33;27.60;;;18.67;;
40515;SDS011;26216;53.724;9.898;2023-01-30T00:22:59;30.50;;;18.30;;
40515;SDS011;26216;53.724;9.898;2023-01-30T00:25:26;28.15;;;17.80;;
40515;SDS011;26216;53.724;9.898;2023-01-30T00:27:52;29.75;;;19.83;;
40515;SDS011;26216;53.724;9.898;2023-01-30T00:30:18;32.50;;;21.08;;
40515;SDS011;26216;53.724;9.898;2023-01-30T00:32:44;29.35;;;18.95;;
40515;SDS011;26216;53.724;9.898;2023-01-30T00:35:09;30.65;;;21.45;;
40515;SDS011;26216;53.724;9.898;2023-01-30T00:37:35;25.80;;;18.42;;
40515;SDS011;26216;53.724;9.898;2023-01-30T00:40:01;29.92;;;20.02;;
40515;SDS011;26216;53.724;9.898;2023-01-30T00:42:28;30.02;;;21.23;;
40515;SDS011;26216;53.724;9.898;2023-01-30T00:45:12;33.38;;;22.35;;
40515;SDS011;26216;53.724;9.898;2023-01-30T00:47:57;28.15;;;18.70;;
40515;SDS011;26216;53.724;9.898;2023-01-30T00:50:24;31.88;;;21.65;;
40515;SDS011;26216;53.724;9.898;2023-01-30T00:52:50;27.13;;;18.27;;
40515;SDS011;26216;53.724;9.898;2023-01-30T00:55:15;26.38;;;18.35;;
40515;SDS011;26216;53.724;9.898;2023-01-30T00:57:43;26.83;;;19.23;;
40515;SDS011;26216;53.724;9.898;2023-01-30T01:00:09;31.40;;;20.67;;
40515;SDS011;26216;53.724;9.898;2023-01-30T01:02:35;26.13;;;18.48;;
40515;SDS011;26216;53.724;9.898;2023-01-30T01:05:01;27.17;;;18.40;;
40515;SDS011;26216;53.724;9.898;2023-01-30T01:07:27;31.48;;;20.38;;
40515;SDS011;26216;53.724;9.898;2023-01-30T01:09:53;31.77;;;20.33;;
40515;SDS011;26216;53.724;9.898;2023-01-30T01:12:19;25.10;;;17.98;;
40515;SDS011;26216;53.724;9.898;2023-01-30T01:14:45;25.52;;;17.10;;
40515;SDS011;26216;53.724;9.898;2023-01-30T01:17:10;30.33;;;20.30;;
40515;SDS011;26216;53.724;9.898;2023-01-30T01:19:36;25.35;;;17.52;;
40515;SDS011;26216;53.724;9.898;2023-01-30T01:22:02;25.92;;;16.65;;
40515;SDS011;26216;53.724;9.898;2023-01-30T01:24:27;30.60;;;19.98;;
40515;SDS011;26216;53.724;9.898;2023-01-30T01:26:53;25.65;;;18.63;;
40515;SDS011;26216;53.724;9.898;2023-01-30T01:29:19;24.00;;;16.75;;
40515;SDS011;26216;53.724;9.898;2023-01-30T01:31:45;25.50;;;17.52;;
40515;SDS011;26216;53.724;9.898;2023-01-30T01:34:11;26.50;;;17.88;;
40515;SDS011;26216;53.724;9.898;2023-01-30T01:36:37;23.77;;;16.13;;
40515;SDS011;26216;53.724;9.898;2023-01-30T01:39:03;25.92;;;17.60;;
40515;SDS011;26216;53.724;9.898;2023-01-30T01:41:28;22.95;;;15.93;;
40515;SDS011;26216;53.724;9.898;2023-01-30T01:44:13;20.90;;;15.88;;
40515;SDS011;26216;53.724;9.898;2023-01-30T01:46:52;27.10;;;19.10;;
40515;SDS011;26216;53.724;9.898;2023-01-30T01:49:26;26.08;;;17.77;;
40515;SDS011;26216;53.724;9.898;2023-01-30T01:52:02;23.52;;;16.27;;
40515;SDS011;26216;53.724;9.898;2023-01-30T01:57:12;20.83;;;14.48;;
40515;SDS011;26216;53.724;9.898;2023-01-30T01:59:52;20.20;;;14.27;;
40515;SDS011;26216;53.724;9.898;2023-01-30T02:02:39;24.30;;;15.73;;
40515;SDS011;26216;53.724;9.898;2023-01-30T02:05:10;23.80;;;17.55;;
40515;SDS011;26216;53.724;9.898;2023-01-30T02:07:51;22.13;;;14.88;;
40515;SDS011;26216;53.724;9.898;2023-01-30T02:10:47;19.10;;;14.52;;
40515;SDS011;26216;53.724;9.898;2023-01-30T02:13:15;18.85;;;13.60;;
40515;SDS011;26216;53.724;9.898;2023-01-30T02:15:42;19.60;;;14.10;;
40515;SDS011;26216;53.724;9.898;2023-01-30T02:18:30;19.05;;;13.70;;
40515;SDS011;26216;53.724;9.898;2023-01-30T02:21:08;19.95;;;14.98;;
40515;SDS011;26216;53.724;9.898;2023-01-30T02:36:03;18.63;;;12.65;;
40515;SDS011;26216;53.724;9.898;2023-01-30T02:38:18;17.40;;;12.80;;
40515;SDS011;26216;53.724;9.898;2023-01-30T02:41:12;18.35;;;12.38;;
40515;SDS011;26216;53.724;9.898;2023-01-30T02:49:14;15.82;;;12.02;;
40515;SDS011;26216;53.724;9.898;2023-01-30T02:54:12;13.70;;;10.40;;
40515;SDS011;26216;53.724;9.898;2023-01-30T02:56:57;14.18;;;11.55;;
40515;SDS011;26216;53.724;9.898;2023-01-30T02:59:31;15.90;;;11.63;;
40515;SDS011;26216;53.724;9.898;2023-01-30T03:12:56;13.43;;;10.52;;
40515;SDS011;26216;53.724;9.898;2023-01-30T03:15:32;14.32;;;9.55;;
40515;SDS011;26216;53.724;9.898;2023-01-30T03:18:02;11.63;;;8.63;;
40515;SDS011;26216;53.724;9.898;2023-01-30T03:20:29;10.88;;;8.30;;
40515;SDS011;26216;53.724;9.898;2023-01-30T03:22:55;10.50;;;7.82;;
40515;SDS011;26216;53.724;9.898;2023-01-30T03:25:22;11.05;;;8.15;;
40515;SDS011;26216;53.724;9.898;2023-01-30T03:27:51;15.07;;;10.40;;
40515;SDS011;26216;53.724;9.898;2023-01-30T03:30:18;10.80;;;8.80;;
40515;SDS011;26216;53.724;9.898;2023-01-30T03:32:45;10.27;;;8.13;;
40515;SDS011;26216;53.724;9.898;2023-01-30T03:35:14;9.27;;;7.60;;
40515;SDS011;26216;53.724;9.898;2023-01-30T03:37:42;10.15;;;7.30;;
40515;SDS011;26216;53.724;9.898;2023-01-30T03:40:10;9.82;;;7.25;;
40515;SDS011;26216;53.724;9.898;2023-01-30T03:42:37;9.38;;;7.32;;
40515;SDS011;26216;53.724;9.898;2023-01-30T03:45:03;10.27;;;7.97;;
40515;SDS011;26216;53.724;9.898;2023-01-30T03:47:30;9.23;;;7.43;;
40515;SDS011;26216;53.724;9.898;2023-01-30T03:49:55;10.80;;;7.63;;
40515;SDS011;26216;53.724;9.898;2023-01-30T03:52:21;10.25;;;7.63;;
40515;SDS011;26216;53.724;9.898;2023-01-30T03:55:06;11.48;;;7.78;;
40515;SDS011;26216;53.724;9.898;2023-01-30T03:57:57;8.48;;;5.25;;
40515;SDS011;26216;53.724;9.898;2023-01-30T04:00:41;5.57;;;3.45;;
40515;SDS011;26216;53.724;9.898;2023-01-30T04:03:26;5.40;;;2.08;;
40515;SDS011;26216;53.724;9.898;2023-01-30T04:06:10;4.47;;;1.60;;
40515;SDS011;26216;53.724;9.898;2023-01-30T04:08:55;5.95;;;1.33;;
40515;SDS011;26216;53.724;9.898;2023-01-30T04:11:40;4.35;;;1.10;;
40515;SDS011;26216;53.724;9.898;2023-01-30T04:14:24;7.85;;;1.20;;
40515;SDS011;26216;53.724;9.898;2023-01-30T04:17:08;8.05;;;1.60;;
40515;SDS011;26216;53.724;9.898;2023-01-30T04:19:53;7.25;;;1.70;;
40515;SDS011;26216;53.724;9.898;2023-01-30T04:22:38;7.75;;;1.58;;
40515;SDS011;26216;53.724;9.898;2023-01-30T04:25:23;7.10;;;1.35;;
40515;SDS011;26216;53.724;9.898;2023-01-30T04:28:08;3.17;;;0.85;;
40515;SDS011;26216;53.724;9.898;2023-01-30T04:30:52;5.68;;;1.00;;
40515;SDS011;26216;53.724;9.898;2023-01-30T04:33:43;5.45;;;1.10;;
40515;SDS011;26216;53.724;9.898;2023-01-30T04:36:28;4.72;;;1.02;;
40515;SDS011;26216;53.724;9.898;2023-01-30T04:39:12;3.67;;;0.90;;
40515;SDS011;26216;53.724;9.898;2023-01-30T04:41:57;4.32;;;1.42;;
40515;SDS011;26216;53.724;9.898;2023-01-30T04:44:41;5.38;;;0.95;;
40515;SDS011;26216;53.724;9.898;2023-01-30T04:47:25;5.20;;;1.45;;
40515;SDS011;26216;53.724;9.898;2023-01-30T04:50:09;5.88;;;1.48;;
40515;SDS011;26216;53.724;9.898;2023-01-30T04:52:54;6.32;;;1.23;;
40515;SDS011;26216;53.724;9.898;2023-01-30T04:55:38;7.05;;;1.48;;
40515;SDS011;26216;53.724;9.898;2023-01-30T04:58:04;6.65;;;1.38;;
40515;SDS011;26216;53.724;9.898;2023-01-30T05:00:30;5.90;;;1.33;;
40515;SDS011;26216;53.724;9.898;2023-01-30T05:02:56;7.90;;;1.55;;
40515;SDS011;26216;53.724;9.898;2023-01-30T05:05:22;7.50;;;1.35;;
40515;SDS011;26216;53.724;9.898;2023-01-30T05:07:49;7.60;;;1.33;;
40515;SDS011;26216;53.724;9.898;2023-01-30T05:10:15;6.80;;;1.33;;
40515;SDS011;26216;53.724;9.898;2023-01-30T05:12:42;9.38;;;2.22;;
40515;SDS011;26216;53.724;9.898;2023-01-30T05:15:08;6.97;;;1.35;;
40515;SDS011;26216;53.724;9.898;2023-01-30T05:17:34;9.25;;;2.17;;
40515;SDS011;26216;53.724;9.898;2023-01-30T05:20:01;10.93;;;2.08;;
40515;SDS011;26216;53.724;9.898;2023-01-30T05:22:27;10.95;;;2.10;;
40515;SDS011;26216;53.724;9.898;2023-01-30T05:24:53;7.18;;;1.70;;
40515;SDS011;26216;53.724;9.898;2023-01-30T05:27:19;11.25;;;1.90;;
40515;SDS011;26216;53.724;9.898;2023-01-30T05:29:45;5.40;;;1.55;;
40515;SDS011;26216;53.724;9.898;2023-01-30T05:32:14;12.52;;;2.50;;
40515;SDS011;26216;53.724;9.898;2023-01-30T05:34:41;13.63;;;2.70;;
40515;SDS011;26216;53.724;9.898;2023-01-30T05:37:07;12.40;;;2.22;;
40515;SDS011;26216;53.724;9.898;2023-01-30T05:39:34;9.75;;;2.17;;
40515;SDS011;26216;53.724;9.898;2023-01-30T05:41:59;8.80;;;1.90;;
40515;SDS011;26216;53.724;9.898;2023-01-30T05:44:25;9.57;;;2.45;;
40515;SDS011;26216;53.724;9.898;2023-01-30T05:46:51;8.38;;;2.67;;
40515;SDS011;26216;53.724;9.898;2023-01-30T05:49:17;12.48;;;2.45;;
40515;SDS011;26216;53.724;9.898;2023-01-30T05:51:43;9.80;;;2.15;;
40515;SDS011;26216;53.724;9.898;2023-01-30T05:54:08;12.63;;;2.42;;
40515;SDS011;26216;53.724;9.898;2023-01-30T05:56:34;6.68;;;1.67;;
40515;SDS011;26216;53.724;9.898;2023-01-30T05:59:00;12.50;;;2.33;;
40515;SDS011;26216;53.724;9.898;2023-01-30T06:01:27;13.20;;;2.90;;
40515;SDS011;26216;53.724;9.898;2023-01-30T06:03:53;12.73;;;2.17;;
40515;SDS011;26216;53.724;9.898;2023-01-30T06:06:20;9.75;;;1.83;;
40515;SDS011;26216;53.724;9.898;2023-01-30T06:08:51;10.65;;;2.03;;
40515;SDS011;26216;53.724;9.898;2023-01-30T06:11:18;10.57;;;2.00;;
40515;SDS011;26216;53.724;9.898;2023-01-30T06:13:44;11.10;;;2.22;;
40515;SDS011;26216;53.724;9.898;2023-01-30T06:16:11;9.55;;;2.42;;
40515;SDS011;26216;53.724;9.898;2023-01-30T06:18:38;10.68;;;2.00;;
40515;SDS011;26216;53.724;9.898;2023-01-30T06:21:05;6.22;;;1.60;;
40515;SDS011;26216;53.724;9.898;2023-01-30T06:23:32;14.63;;;3.80;;
40515;SDS011;26216;53.724;9.898;2023-01-30T06:25:58;14.90;;;2.72;;
40515;SDS011;26216;53.724;9.898;2023-01-30T06:28:24;13.55;;;2.65;;
40515;SDS011;26216;53.724;9.898;2023-01-30T06:30:51;12.95;;;2.58;;
40515;SDS011;26216;53.724;9.898;2023-01-30T06:33:18;14.73;;;3.40;;
40515;SDS011;26216;53.724;9.898;2023-01-30T06:35:46;12.45;;;2.50;;
40515;SDS011;26216;53.724;9.898;2023-01-30T06:38:13;11.63;;;1.70;;
40515;SDS011;26216;53.724;9.898;2023-01-30T06:40:40;8.88;;;1.75;;
40515;SDS011;26216;53.724;9.898;2023-01-30T06:43:10;11.07;;;2.53;;
40515;SDS011;26216;53.724;9.898;2023-01-30T06:45:36;12.93;;;2.92;;
40515;SDS011;26216;53.724;9.898;2023-01-30T06:48:02;13.15;;;1.98;;
40515;SDS011;26216;53.724;9.898;2023-01-30T06:50:28;11.98;;;2.35;;
40515;SDS011;26216;53.724;9.898;2023-01-30T06:52:55;14.50;;;2.33;;
40515;SDS011;26216;53.724;9.898;2023-01-30T06:55:23;8.82;;;2.80;;
40515;SDS011;26216;53.724;9.898;2023-01-30T06:58:00;13.27;;;2.58;;
40515;SDS011;26216;53.724;9.898;2023-01-30T07:00:30;18.90;;;3.28;;
40515;SDS011;26216;53.724;9.898;2023-01-30T07:02:57;11.13;;;1.80;;
40515;SDS011;26216;53.724;9.898;2023-01-30T07:05:23;8.32;;;2.22;;
40515;SDS011;26216;53.724;9.898;2023-01-30T07:07:49;8.00;;;1.75;;
40515;SDS011;26216;53.724;9.898;2023-01-30T07:10:15;10.80;;;2.00;;
40515;SDS011;26216;53.724;9.898;2023-01-30T07:12:44;10.10;;;1.90;;
40515;SDS011;26216;53.724;9.898;2023-01-30T07:15:12;11.60;;;2.17;;
40515;SDS011;26216;53.724;9.898;2023-01-30T07:17:40;13.63;;;2.67;;
40515;SDS011;26216;53.724;9.898;2023-01-30T07:20:09;15.10;;;2.58;;
40515;SDS011;26216;53.724;9.898;2023-01-30T07:22:35;9.50;;;1.73;;
40515;SDS011;26216;53.724;9.898;2023-01-30T07:25:01;16.17;;;2.75;;
40515;SDS011;26216;53.724;9.898;2023-01-30T07:27:28;12.85;;;2.53;;
40515;SDS011;26216;53.724;9.898;2023-01-30T07:29:54;12.25;;;2.20;;
40515;SDS011;26216;53.724;9.898;2023-01-30T07:32:20;16.27;;;2.80;;
40515;SDS011;26216;53.724;9.898;2023-01-30T07:34:46;16.60;;;3.40;;
40515;SDS011;26216;53.724;9.898;2023-01-30T07:37:13;10.70;;;2.13;;
40515;SDS011;26216;53.724;9.898;2023-01-30T07:39:40;16.60;;;2.78;;
40515;SDS011;26216;53.724;9.898;2023-01-30T07:42:08;15.27;;;3.72;;
40515;SDS011;26216;53.724;9.898;2023-01-30T07:44:34;14.85;;;2.50;;
40515;SDS011;26216;53.724;9.898;2023-01-30T07:47:00;10.23;;;2.05;;
40515;SDS011;26216;53.724;9.898;2023-01-30T07:49:26;16.67;;;3.72;;
40515;SDS011;26216;53.724;9.898;2023-01-30T07:51:52;15.30;;;3.33;;
40515;SDS011;26216;53.724;9.898;2023-01-30T07:54:17;18.73;;;4.13;;
40515;SDS011;26216;53.724;9.898;2023-01-30T07:56:43;11.63;;;3.08;;
40515;SDS011;26216;53.724;9.898;2023-01-30T07:59:12;15.73;;;2.90;;
40515;SDS011;26216;53.724;9.898;2023-01-30T08:01:38;16.80;;;3.20;;
40515;SDS011;26216;53.724;9.898;2023-01-30T08:04:05;13.32;;;4.13;;
40515;SDS011;26216;53.724;9.898;2023-01-30T08:06:30;15.43;;;2.72;;
40515;SDS011;26216;53.724;9.898;2023-01-30T08:09:01;14.57;;;2.75;;
40515;SDS011;26216;53.724;9.898;2023-01-30T08:11:27;18.77;;;3.83;;
40515;SDS011;26216;53.724;9.898;2023-01-30T08:13:52;19.88;;;4.20;;
40515;SDS011;26216;53.724;9.898;2023-01-30T08:16:19;19.65;;;4.05;;
40515;SDS011;26216;53.724;9.898;2023-01-30T08:18:46;19.88;;;3.85;;
40515;SDS011;26216;53.724;9.898;2023-01-30T08:21:12;15.02;;;3.17;;
40515;SDS011;26216;53.724;9.898;2023-01-30T08:23:38;20.65;;;3.95;;
40515;SDS011;26216;53.724;9.898;2023-01-30T08:26:04;17.58;;;3.70;;
40515;SDS011;26216;53.724;9.898;2023-01-30T08:28:30;19.58;;;4.57;;
40515;SDS011;26216;53.724;9.898;2023-01-30T08:30:59;16.20;;;3.22;;
40515;SDS011;26216;53.724;9.898;2023-01-30T08:33:27;21.20;;;3.92;;
40515;SDS011;26216;53.724;9.898;2023-01-30T08:35:55;21.95;;;4.30;;
40515;SDS011;26216;53.724;9.898;2023-01-30T08:38:21;26.77;;;5.00;;
40515;SDS011;26216;53.724;9.898;2023-01-30T08:40:47;24.55;;;4.60;;
40515;SDS011;26216;53.724;9.898;2023-01-30T08:43:13;24.48;;;4.30;;
40515;SDS011;26216;53.724;9.898;2023-01-30T08:45:39;25.70;;;5.53;;
40515;SDS011;26216;53.724;9.898;2023-01-30T08:48:05;23.23;;;5.03;;
40515;SDS011;26216;53.724;9.898;2023-01-30T08:50:31;24.25;;;4.57;;
40515;SDS011;26216;53.724;9.898;2023-01-30T08:53:05;27.17;;;6.07;;
40515;SDS011;26216;53.724;9.898;2023-01-30T08:55:34;23.10;;;4.13;;
40515;SDS011;26216;53.724;9.898;2023-01-30T08:57:59;25.67;;;4.60;;
40515;SDS011;26216;53.724;9.898;2023-01-30T09:00:26;16.70;;;3.78;;
40515;SDS011;26216;53.724;9.898;2023-01-30T09:02:55;22.27;;;4.85;;
40515;SDS011;26216;53.724;9.898;2023-01-30T09:05:24;32.33;;;4.88;;
40515;SDS011;26216;53.724;9.898;2023-01-30T09:07:50;21.35;;;4.38;;
40515;SDS011;26216;53.724;9.898;2023-01-30T09:10:16;23.13;;;4.63;;
40515;SDS011;26216;53.724;9.898;2023-01-30T09:12:42;26.92;;;4.57;;
40515;SDS011;26216;53.724;9.898;2023-01-30T09:15:09;27.08;;;5.28;;
40515;SDS011;26216;53.724;9.898;2023-01-30T09:17:36;22.83;;;4.93;;
40515;SDS011;26216;53.724;9.898;2023-01-30T09:20:04;22.70;;;5.00;;
40515;SDS011;26216;53.724;9.898;2023-01-30T09:22:33;22.55;;;4.43;;
40515;SDS011;26216;53.724;9.898;2023-01-30T09:24:59;29.27;;;5.20;;
40515;SDS011;26216;53.724;9.898;2023-01-30T09:27:24;22.52;;;4.60;;
40515;SDS011;26216;53.724;9.898;2023-01-30T09:29:51;25.13;;;4.25;;
40515;SDS011;26216;53.724;9.898;2023-01-30T09:32:17;21.05;;;4.28;;
40515;SDS011;26216;53.724;9.898;2023-01-30T09:34:43;25.50;;;4.90;;
40515;SDS011;26216;53.724;9.898;2023-01-30T09:37:09;16.45;;;3.97;;
40515;SDS011;26216;53.724;9.898;2023-01-30T09:39:35;21.27;;;3.65;;
40515;SDS011;26216;53.724;9.898;2023-01-30T09:47:55;19.92;;;4.18;;
40515;SDS011;26216;53.724;9.898;2023-01-30T09:53:17;20.25;;;4.75;;
40515;SDS011;26216;53.724;9.898;2023-01-30T09:55:54;24.73;;;5.28;;
40515;SDS011;26216;53.724;9.898;2023-01-30T09:58:23;16.38;;;4.43;;
40515;SDS011;26216;53.724;9.898;2023-01-30T10:00:54;27.40;;;5.30;;
40515;SDS011;26216;53.724;9.898;2023-01-30T10:03:28;15.63;;;4.55;;
40515;SDS011;26216;53.724;9.898;2023-01-30T10:06:04;16.83;;;3.55;;
40515;SDS011;26216;53.724;9.898;2023-01-30T10:22:29;13.32;;;2.47;;
40515;SDS011;26216;53.724;9.898;2023-01-30T10:25:21;15.38;;;2.97;;
40515;SDS011;26216;53.724;9.898;2023-01-30T10:28:03;17.75;;;4.15;;
40515;SDS011;26216;53.724;9.898;2023-01-30T10:30:35;17.65;;;3.97;;
40515;SDS011;26216;53.724;9.898;2023-01-30T10:33:04;19.60;;;3.50;;
40515;SDS011;26216;53.724;9.898;2023-01-30T10:35:38;15.90;;;4.03;;
40515;SDS011;26216;53.724;9.898;2023-01-30T10:38:20;22.00;;;5.07;;
40515;SDS011;26216;53.724;9.898;2023-01-30T10:41:06;21.08;;;4.57;;
40515;SDS011;26216;53.724;9.898;2023-01-30T10:44:10;23.58;;;4.68;;
40515;SDS011;26216;53.724;9.898;2023-01-30T10:49:22;19.33;;;4.47;;
40515;SDS011;26216;53.724;9.898;2023-01-30T11:00:34;6.70;;;1.48;;
40515;SDS011;26216;53.724;9.898;2023-01-30T11:03:32;5.22;;;1.30;;
40515;SDS011;26216;53.724;9.898;2023-01-30T11:06:11;2.45;;;0.68;;
40515;SDS011;26216;53.724;9.898;2023-01-30T11:08:49;4.72;;;0.75;;
40515;SDS011;26216;53.724;9.898;2023-01-30T11:16:40;2.92;;;0.82;;
40515;SDS011;26216;53.724;9.898;2023-01-30T11:19:14;4.28;;;1.00;;
40515;SDS011;26216;53.724;9.898;2023-01-30T11:21:46;3.83;;;0.82;;
40515;SDS011;26216;53.724;9.898;2023-01-30T11:24:17;7.15;;;1.50;;
40515;SDS011;26216;53.724;9.898;2023-01-30T11:26:45;7.50;;;1.38;;
40515;SDS011;26216;53.724;9.898;2023-01-30T11:29:31;9.68;;;1.90;;
40515;SDS011;26216;53.724;9.898;2023-01-30T11:32:04;5.68;;;1.42;;
40515;SDS011;26216;53.724;9.898;2023-01-30T11:34:35;14.60;;;1.80;;
40515;SDS011;26216;53.724;9.898;2023-01-30T11:37:17;5.05;;;1.20;;
40515;SDS011;26216;53.724;9.898;2023-01-30T11:39:57;8.27;;;1.83;;
40515;SDS011;26216;53.724;9.898;2023-01-30T11:42:24;6.15;;;1.63;;
40515;SDS011;26216;53.724;9.898;2023-01-30T11:44:57;10.25;;;2.08;;
40515;SDS011;26216;53.724;9.898;2023-01-30T11:47:25;11.95;;;2.40;;
40515;SDS011;26216;53.724;9.898;2023-01-30T11:49:57;12.35;;;1.92;;
40515;SDS011;26216;53.724;9.898;2023-01-30T11:52:30;13.30;;;2.85;;
40515;SDS011;26216;53.724;9.898;2023-01-30T11:55:00;15.35;;;2.85;;
40515;SDS011;26216;53.724;9.898;2023-01-30T11:58:06;17.90;;;2.80;;
40515;SDS011;26216;53.724;9.898;2023-01-30T12:00:26;12.48;;;2.63;;
40515;SDS011;26216;53.724;9.898;2023-01-30T12:03:03;10.20;;;2.60;;
40515;SDS011;26216;53.724;9.898;2023-01-30T12:05:35;10.07;;;2.25;;
40515;SDS011;26216;53.724;9.898;2023-01-30T12:08:13;11.85;;;3.28;;
40515;SDS011;26216;53.724;9.898;2023-01-30T12:10:50;16.92;;;2.95;;
40515;SDS011;26216;53.724;9.898;2023-01-30T12:13:28;4.75;;;0.80;;
40515;SDS011;26216;53.724;9.898;2023-01-30T12:16:19;6.63;;;1.50;;
40515;SDS011;26216;53.724;9.898;2023-01-30T12:18:53;6.32;;;1.27;;
40515;SDS011;26216;53.724;9.898;2023-01-30T12:21:47;5.50;;;1.08;;
40515;SDS011;26216;53.724;9.898;2023-01-30T12:24:41;3.15;;;0.88;;
40515;SDS011;26216;53.724;9.898;2023-01-30T12:32:42;7.60;;;1.27;;
40515;SDS011;26216;53.724;9.898;2023-01-30T12:35:17;4.43;;;1.23;;
40515;SDS011;26216;53.724;9.898;2023-01-30T12:48:26;18.13;;;3.00;;
40515;SDS011;26216;53.724;9.898;2023-01-30T13:15:18;18.67;;;4.43;;
40515;SDS011;26216;53.724;9.898;2023-01-30T13:18:16;21.38;;;4.10;;
40515;SDS011;26216;53.724;9.898;2023-01-30T13:20:49;29.42;;;5.50;;
40515;SDS011;26216;53.724;9.898;2023-01-30T13:28:24;28.25;;;4.97;;
40515;SDS011;26216;53.724;9.898;2023-01-30T13:30:53;23.75;;;4.32;;
40515;SDS011;26216;53.724;9.898;2023-01-30T13:33:24;23.55;;;4.35;;
40515;SDS011;26216;53.724;9.898;2023-01-30T13:36:41;17.25;;;4.25;;
40515;SDS011;26216;53.724;9.898;2023-01-30T13:39:00;19.10;;;3.67;;
40515;SDS011;26216;53.724;9.898;2023-01-30T13:41:28;18.92;;;4.65;;
40515;SDS011;26216;53.724;9.898;2023-01-30T13:43:59;21.83;;;4.35;;
40515;SDS011;26216;53.724;9.898;2023-01-30T13:46:37;19.98;;;3.80;;
40515;SDS011;26216;53.724;9.898;2023-01-30T13:51:48;12.55;;;3.20;;
40515;SDS011;26216;53.724;9.898;2023-01-30T13:54:27;10.15;;;2.55;;
40515;SDS011;26216;53.724;9.898;2023-01-30T14:02:33;26.17;;;4.45;;
40515;SDS011;26216;53.724;9.898;2023-01-30T14:04:59;23.20;;;4.10;;
40515;SDS011;26216;53.724;9.898;2023-01-30T14:07:38;25.35;;;4.80;;
40515;SDS011;26216;53.724;9.898;2023-01-30T14:12:49;23.33;;;4.22;;
40515;SDS011;26216;53.724;9.898;2023-01-30T14:15:24;24.58;;;4.50;;
40515;SDS011;26216;53.724;9.898;2023-01-30T14:20:31;21.88;;;4.05;;
40515;SDS011;26216;53.724;9.898;2023-01-30T14:23:00;20.77;;;4.57;;
40515;SDS011;26216;53.724;9.898;2023-01-30T14:25:34;28.10;;;4.95;;
40515;SDS011;26216;53.724;9.898;2023-01-30T14:30:47;26.65;;;5.50;;
40515;SDS011;26216;53.724;9.898;2023-01-30T14:38:34;21.42;;;4.95;;
40515;SDS011;26216;53.724;9.898;2023-01-30T14:41:14;23.95;;;5.07;;
40515;SDS011;26216;53.724;9.898;2023-01-30T14:43:59;25.40;;;5.97;;
40515;SDS011;26216;53.724;9.898;2023-01-30T14:51:51;23.58;;;4.60;;
40515;SDS011;26216;53.724;9.898;2023-01-30T14:54:22;26.02;;;5.32;;
40515;SDS011;26216;53.724;9.898;2023-01-30T14:56:58;22.75;;;4.95;;
40515;SDS011;26216;53.724;9.898;2023-01-30T14:59:38;26.88;;;5.45;;
40515;SDS011;26216;53.724;9.898;2023-01-30T15:02:23;23.63;;;4.15;;
40515;SDS011;26216;53.724;9.898;2023-01-30T15:07:35;26.50;;;5.05;;
40515;SDS011;26216;53.724;9.898;2023-01-30T15:13:12;15.95;;;3.78;;
40515;SDS011;26216;53.724;9.898;2023-01-30T15:21:50;21.20;;;4.40;;
40515;SDS011;26216;53.724;9.898;2023-01-30T15:33:25;20.13;;;4.85;;
40515;SDS011;26216;53.724;9.898;2023-01-30T15:35:52;23.08;;;4.63;;
40515;SDS011;26216;53.724;9.898;2023-01-30T15:40:52;23.15;;;4.80;;
40515;SDS011;26216;53.724;9.898;2023-01-30T15:46:35;17.48;;;4.20;;
40515;SDS011;26216;53.724;9.898;2023-01-30T15:52:04;24.42;;;5.60;;
40515;SDS011;26216;53.724;9.898;2023-01-30T15:54:40;17.65;;;4.07;;
40515;SDS011;26216;53.724;9.898;2023-01-30T15:57:36;22.13;;;4.70;;
40515;SDS011;26216;53.724;9.898;2023-01-30T16:00:12;21.67;;;5.75;;
40515;SDS011;26216;53.724;9.898;2023-01-30T16:02:51;27.95;;;5.80;;
40515;SDS011;26216;53.724;9.898;2023-01-30T16:05:20;29.70;;;5.82;;
40515;SDS011;26216;53.724;9.898;2023-01-30T16:07:48;20.15;;;4.55;;
40515;SDS011;26216;53.724;9.898;2023-01-30T16:10:23;28.95;;;5.15;;
40515;SDS011;26216;53.724;9.898;2023-01-30T16:12:54;27.80;;;5.88;;
40515;SDS011;26216;53.724;9.898;2023-01-30T16:15:45;27.63;;;5.07;;
40515;SDS011;26216;53.724;9.898;2023-01-30T16:18:39;27.92;;;5.15;;
40515;SDS011;26216;53.724;9.898;2023-01-30T16:21:09;26.60;;;5.63;;
40515;SDS011;26216;53.724;9.898;2023-01-30T16:24:00;27.17;;;5.47;;
40515;SDS011;26216;53.724;9.898;2023-01-30T16:26:40;25.70;;;5.43;;
40515;SDS011;26216;53.724;9.898;2023-01-30T16:31:53;34.15;;;5.32;;
40515;SDS011;26216;53.724;9.898;2023-01-30T16:34:35;20.02;;;4.45;;
40515;SDS011;26216;53.724;9.898;2023-01-30T16:37:20;21.13;;;3.90;;
40515;SDS011;26216;53.724;9.898;2023-01-30T16:40:02;20.98;;;4.35;;
40515;SDS011;26216;53.724;9.898;2023-01-30T16:42:31;20.17;;;3.95;;
40515;SDS011;26216;53.724;9.898;2023-01-30T16:47:37;25.40;;;4.68;;
40515;SDS011;26216;53.724;9.898;2023-01-30T16:50:16;18.83;;;4.50;;
40515;SDS011;26216;53.724;9.898;2023-01-30T16:52:46;26.00;;;5.43;;
40515;SDS011;26216;53.724;9.898;2023-01-30T16:55:26;16.95;;;4.28;;
40515;SDS011;26216;53.724;9.898;2023-01-30T16:57:56;22.15;;;5.03;;
40515;SDS011;26216;53.724;9.898;2023-01-30T17:00:35;23.80;;;4.78;;
40515;SDS011;26216;53.724;9.898;2023-01-30T17:03:29;26.17;;;4.97;;
40515;SDS011;26216;53.724;9.898;2023-01-30T17:05:58;27.15;;;5.15;;
40515;SDS011;26216;53.724;9.898;2023-01-30T17:11:08;18.20;;;4.60;;
40515;SDS011;26216;53.724;9.898;2023-01-30T17:13:45;17.83;;;3.58;;
40515;SDS011;26216;53.724;9.898;2023-01-30T17:18:59;24.05;;;5.10;;
40515;SDS011;26216;53.724;9.898;2023-01-30T17:21:27;17.00;;;4.45;;
40515;SDS011;26216;53.724;9.898;2023-01-30T17:24:12;19.23;;;4.40;;
40515;SDS011;26216;53.724;9.898;2023-01-30T17:26:44;19.95;;;3.67;;
40515;SDS011;26216;53.724;9.898;2023-01-30T17:29:15;18.45;;;4.53;;
40515;SDS011;26216;53.724;9.898;2023-01-30T17:31:51;20.65;;;4.35;;
40515;SDS011;26216;53.724;9.898;2023-01-30T17:34:19;16.23;;;3.90;;
40515;SDS011;26216;53.724;9.898;2023-01-30T17:36:47;20.00;;;4.88;;
40515;SDS011;26216;53.724;9.898;2023-01-30T17:39:20;19.00;;;4.13;;
40515;SDS011;26216;53.724;9.898;2023-01-30T17:41:50;13.23;;;3.92;;
40515;SDS011;26216;53.724;9.898;2023-01-30T17:44:18;17.48;;;3.97;;
40515;SDS011;26216;53.724;9.898;2023-01-30T17:46:48;14.10;;;3.58;;
40515;SDS011;26216;53.724;9.898;2023-01-30T17:49:19;15.75;;;4.07;;
40515;SDS011;26216;53.724;9.898;2023-01-30T17:51:49;16.23;;;3.03;;
40515;SDS011;26216;53.724;9.898;2023-01-30T17:54:20;17.05;;;3.22;;
40515;SDS011;26216;53.724;9.898;2023-01-30T17:56:51;15.90;;;3.83;;
40515;SDS011;26216;53.724;9.898;2023-01-30T17:59:23;15.18;;;3.30;;
40515;SDS011;26216;53.724;9.898;2023-01-30T18:01:50;10.98;;;3.03;;
40515;SDS011;26216;53.724;9.898;2023-01-30T18:04:17;16.77;;;3.88;;
40515;SDS011;26216;53.724;9.898;2023-01-30T18:06:48;17.35;;;3.28;;
40515;SDS011;26216;53.724;9.898;2023-01-30T18:09:18;19.67;;;4.13;;